Terminal Aerodrome Forecast
Issued by NWS Sterling, VA

Home | Current Version | Previous Version | Text Only | Print | Product List | Glossary On
Versions: 1 2 3 4 5 6 7 8 9 10 11 12 13 14 15 16 17 18 19 20 21 22 23 24 25 26 27
488
FTUS41 KLWX 021738
TAFBWI
TAF
KBWI 021738Z 0218/0324 28015G20KT P6SM FEW060 SCT180
     FM030300 29010KT P6SM SCT250
     FM031400 31016G23KT P6SM SCT250=

USA.gov is the U.S. government's official web portal to all federal, state and local government web resources and services.